Santa Maria do Suacui, Brazil
Current Conditions -  °F | °C
As of 2:00 PM on Monday 24 Nov 2014 (Local Time) from SBMK Reporting Station
Broken Clouds Broken Clouds  
Wind Chill: 81°   Ceiling: 10000
Heat Index: 83°   Visibility: 6mi
Dew Point: 66°   Wind: 6mph
Humidity: 61%   Direction: 120°ESE
Pressure: 30.03"   Gusts: NA
Location:  18.19°S, 42.41°W
Report Text: SBMK 241600Z 12005KT 070V210 9999 SCT020 FEW030TCU BKN100 27/19 Q1017
Loading
Personal Weather Stations






























Interactive Weather Map New forecast layout! Learn more

10-Day Weather Forecast

Advertisements
Track Severe Weather on mobile